Time;durP1;ratioP1;P1;durP2;ratioP2;P2;SDS_P1;SDS_P2;PMS_P1;PMS_P2;Temp;Humidity;BMP_temperature;BMP_pressure;BME280_temperature;BME280_humidity;BME280_pressure;Samples;Min_cycle;Max_cycle;Signal;HPM_P1;HPM_P2
2022/08/03 00:02:48;;;;;;;1.00;0.40;;;;;;;19.24;92.08;98445.59;15274131;19;20033;-65
2022/08/03 00:07:56;;;;;;;0.68;0.50;;;;;;;19.18;94.28;98442.88;15287123;19;20539;-63
2022/08/03 00:13:01;;;;;;;0.93;0.55;;;;;;;19.07;96.34;98434.31;15283401;19;20029;-62
2022/08/03 00:18:06;;;;;;;1.30;0.40;;;;;;;19.01;97.10;98437.91;15285652;19;20041;-63
2022/08/03 00:23:14;;;;;;;1.10;0.50;;;;;;;18.97;99.12;98438.53;15278652;19;20014;-63
2022/08/03 00:28:19;;;;;;;1.33;0.50;;;;;;;18.91;99.24;98442.94;15289401;19;20010;-63
2022/08/03 00:33:24;;;;;;;1.73;0.50;;;;;;;18.87;99.93;98430.81;15285619;19;20011;-63
2022/08/03 00:38:35;;;;;;;2.28;0.70;;;;;;;18.81;100.00;98445.28;15298577;19;20038;-63
2022/08/03 00:43:40;;;;;;;2.78;0.43;;;;;;;18.72;100.00;98442.81;15293992;19;20042;-63
2022/08/03 00:48:45;;;;;;;1.92;0.60;;;;;;;18.66;100.00;98443.63;15297675;19;20018;-63
2022/08/03 00:53:53;;;;;;;2.22;0.40;;;;;;;18.64;100.00;98445.75;15300572;19;20367;-63
2022/08/03 00:59:00;;;;;;;2.72;0.60;;;;;;;18.58;100.00;98441.97;15297133;19;20022;-63
2022/08/03 01:04:05;;;;;;;3.10;0.60;;;;;;;18.54;100.00;98440.75;15286458;19;20010;-63
2022/08/03 01:09:21;;;;;;;2.45;0.65;;;;;;;18.51;100.00;98440.34;15296076;19;20010;-63
2022/08/03 01:14:34;;;;;;;3.13;0.50;;;;;;;18.47;100.00;98440.75;15295445;19;20034;-63
2022/08/03 01:19:48;;;;;;;2.13;0.70;;;;;;;18.43;100.00;98444.13;15296745;19;20014;-63
2022/08/03 01:25:04;;;;;;;1.05;0.50;;;;;;;18.42;100.00;98437.81;15291605;19;20021;-63
2022/08/03 01:30:13;;;;;;;0.40;0.40;;;;;;;18.36;100.00;98433.22;14783486;19;10000489;-63
2022/08/03 01:35:34;;;;;;;2.75;0.60;;;;;;;18.32;100.00;98438.25;15297926;19;20028;-63
2022/08/03 01:40:44;;;;;;;1.33;0.60;;;;;;;18.27;100.00;98434.47;15282343;19;20359;-61
2022/08/03 01:45:54;;;;;;;0.75;0.40;;;;;;;18.24;100.00;98434.91;15295737;19;20015;-63
2022/08/03 01:51:01;;;;;;;1.90;0.50;;;;;;;18.19;100.00;98432.81;15292302;19;20014;-62
2022/08/03 01:56:08;;;;;;;1.15;0.50;;;;;;;18.15;100.00;98437.84;15294330;19;20439;-63
2022/08/03 02:01:18;;;;;;;1.40;0.50;;;;;;;18.12;100.00;98416.44;15291196;19;20026;-63
2022/08/03 02:06:24;;;;;;;1.05;0.47;;;;;;;18.07;100.00;98432.59;15293098;19;20038;-63
2022/08/03 02:11:50;;;;;;;1.48;0.45;;;;;;;18.03;100.00;98434.06;15279219;19;20018;-63
2022/08/03 02:17:00;;;;;;;1.35;0.50;;;;;;;17.99;100.00;98427.34;15291732;19;20014;-63
2022/08/03 02:22:09;;;;;;;2.25;0.50;;;;;;;17.94;100.00;98425.22;15288078;19;20042;-61
2022/08/03 02:27:25;;;;;;;1.55;0.47;;;;;;;17.90;100.00;98418.50;15294201;19;20018;-63
2022/08/03 02:32:38;;;;;;;3.63;0.65;;;;;;;17.86;100.00;98418.09;15289169;19;20017;-63
2022/08/03 02:37:46;;;;;;;0.75;0.55;;;;;;;17.80;100.00;98413.47;15292855;19;20389;-63
2022/08/03 02:42:57;;;;;;;1.30;0.60;;;;;;;17.76;100.00;98414.94;15279170;19;20576;-63
2022/08/03 02:48:07;;;;;;;3.25;0.60;;;;;;;17.73;100.00;98422.69;15291954;19;20015;-62
2022/08/03 02:53:14;;;;;;;0.85;0.60;;;;;;;17.65;100.00;98421.81;15285782;19;20522;-62
2022/08/03 02:58:21;;;;;;;1.55;0.60;;;;;;;17.60;100.00;98418.03;15291950;19;20006;-63
2022/08/03 03:03:29;;;;;;;3.05;0.60;;;;;;;17.51;100.00;98420.97;15286421;19;20014;-62
2022/08/03 03:08:50;;;;;;;1.65;0.40;;;;;;;17.45;100.00;98412.78;15289515;19;20011;-63
2022/08/03 03:13:57;;;;;;;3.00;0.65;;;;;;;17.39;100.00;98412.59;15278611;19;20336;-63
2022/08/03 03:19:05;;;;;;;1.10;0.60;;;;;;;17.36;100.00;98403.97;15284388;19;20015;-63
2022/08/03 03:24:11;;;;;;;0.77;0.40;;;;;;;17.31;100.00;98409.19;15284868;19;20014;-61
2022/08/03 03:29:17;;;;;;;3.78;0.60;;;;;;;17.25;100.00;98408.97;15286008;19;20338;-62
2022/08/03 03:34:25;;;;;;;2.70;0.70;;;;;;;17.22;100.00;98411.25;15288468;19;20479;-62
2022/08/03 03:39:32;;;;;;;1.15;0.47;;;;;;;17.16;100.00;98410.19;15288075;19;20053;-63
2022/08/03 03:44:37;;;;;;;2.90;0.65;;;;;;;17.09;100.00;98412.06;15284861;19;20027;-62
2022/08/03 03:49:45;;;;;;;0.60;0.50;;;;;;;17.05;100.00;98410.78;15274536;19;20089;-63
2022/08/03 03:54:51;;;;;;;0.85;0.40;;;;;;;17.01;100.00;98410.34;15287204;19;20501;-62
2022/08/03 04:00:02;;;;;;;2.33;0.70;;;;;;;16.98;100.00;98413.47;15284107;19;20018;-62
2022/08/03 04:15:49;;;;;;;1.65;0.50;;;;;;;16.91;100.00;98412.59;15301723;19;20014;-63
2022/08/03 04:20:58;;;;;;;0.93;0.60;;;;;;;16.89;100.00;98420.13;15289727;19;20027;-62
2022/08/03 04:26:05;;;;;;;2.60;0.60;;;;;;;16.87;100.00;98417.59;15295778;19;20018;-63
2022/08/03 04:31:10;;;;;;;2.10;0.70;;;;;;;16.86;100.00;98425.94;15297362;19;20434;-63
2022/08/03 04:36:22;;;;;;;1.80;0.52;;;;;;;16.86;100.00;98426.81;15299988;19;20518;-62
2022/08/03 04:41:29;;;;;;;2.25;0.60;;;;;;;16.87;100.00;98428.50;15296605;19;20011;-63
2022/08/03 04:46:38;;;;;;;1.05;0.70;;;;;;;16.89;100.00;98434.53;15293812;19;20891;-62
2022/08/03 04:51:56;;;;;;;1.15;0.50;;;;;;;16.91;100.00;98432.47;15288174;19;20014;-63
2022/08/03 04:57:01;;;;;;;2.55;0.60;;;;;;;16.94;100.00;98443.00;15298387;19;20014;-62
2022/08/03 05:02:08;;;;;;;0.50;0.50;;;;;;;17.00;100.00;98432.31;15291156;19;20015;-61
2022/08/03 05:07:16;;;;;;;2.10;0.60;;;;;;;17.05;100.00;98440.72;15296758;19;20082;-62
2022/08/03 05:12:28;;;;;;;1.20;0.70;;;;;;;17.14;100.00;98446.84;15292684;19;20046;-62
2022/08/03 05:17:36;;;;;;;1.90;0.57;;;;;;;17.23;100.00;98446.44;15298526;19;20478;-64
2022/08/03 05:22:47;;;;;;;1.63;0.57;;;;;;;17.32;100.00;98441.66;15282823;19;20162;-64
2022/08/03 05:27:52;;;;;;;1.35;0.65;;;;;;;17.41;100.00;98440.41;15294901;19;20451;-64
2022/08/03 05:32:58;;;;;;;6.78;0.70;;;;;;;17.53;100.00;98448.00;15289530;19;20010;-64
2022/08/03 05:38:06;;;;;;;0.50;0.47;;;;;;;17.65;100.00;98445.53;15295454;19;20617;-64
2022/08/03 05:43:12;;;;;;;0.77;0.52;;;;;;;17.75;100.00;98443.22;15291220;19;20021;-64
2022/08/03 05:48:17;;;;;;;0.55;0.40;;;;;;;17.90;100.00;98444.94;15290380;19;20561;-65
2022/08/03 05:53:25;;;;;;;1.95;0.60;;;;;;;18.04;100.00;98449.38;15284489;19;20557;-64
2022/08/03 05:58:30;;;;;;;3.05;0.60;;;;;;;18.17;100.00;98459.44;15284215;19;20035;-64
2022/08/03 06:03:37;;;;;;;1.80;0.75;;;;;;;18.34;100.00;98457.13;15287945;19;20023;-65
2022/08/03 06:08:47;;;;;;;2.05;0.65;;;;;;;18.50;100.00;98460.47;15293914;19;20018;-64
2022/08/03 06:13:52;;;;;;;1.23;0.60;;;;;;;18.68;100.00;98452.47;15292391;19;20014;-65
2022/08/03 06:18:57;;;;;;;1.08;0.50;;;;;;;18.89;100.00;98455.97;15292689;19;20474;-64
2022/08/03 06:24:05;;;;;;;4.07;0.73;;;;;;;19.05;100.00;98450.06;15284121;19;20022;-65
2022/08/03 06:29:11;;;;;;;0.95;0.43;;;;;;;19.27;100.00;98444.31;15277785;19;20018;-63
2022/08/03 06:34:16;;;;;;;0.68;0.60;;;;;;;19.46;100.00;98450.72;15287018;19;20047;-61
2022/08/03 06:39:40;;;;;;;2.33;0.70;;;;;;;19.66;100.00;98458.81;15287936;19;20010;-57
2022/08/03 06:44:51;;;;;;;2.15;0.60;;;;;;;19.86;100.00;98453.25;15286511;19;20042;-61
2022/08/03 06:49:56;;;;;;;1.20;0.60;;;;;;;20.15;100.00;98453.66;15289364;19;20014;-63
2022/08/03 06:55:24;;;;;;;1.15;0.70;;;;;;;20.39;100.00;98453.06;15286856;19;20010;-55
2022/08/03 07:00:29;;;;;;;3.88;0.70;;;;;;;20.72;100.00;98447.25;15274484;19;20011;-64
2022/08/03 07:05:34;;;;;;;1.52;0.80;;;;;;;20.96;100.00;98447.44;15286826;19;20721;-64
2022/08/03 07:10:42;;;;;;;2.22;0.80;;;;;;;21.22;100.00;98454.50;15286485;19;20051;-63
2022/08/03 07:15:47;;;;;;;2.53;0.70;;;;;;;21.49;100.00;98450.59;15264896;19;20031;-63
2022/08/03 07:21:00;;;;;;;2.28;0.90;;;;;;;21.78;100.00;98446.19;15285233;19;20606;-63
2022/08/03 07:26:07;;;;;;;3.08;0.70;;;;;;;21.97;100.00;98455.19;15285011;19;20043;-64
2022/08/03 07:31:12;;;;;;;4.20;0.60;;;;;;;22.13;100.00;98447.31;15271812;19;20027;-63
2022/08/03 07:36:17;;;;;;;5.55;0.70;;;;;;;22.36;100.00;98454.75;15280847;19;20038;-63
2022/08/03 07:41:24;;;;;;;5.57;0.90;;;;;;;22.70;100.00;98451.44;15281868;19;20048;-63
2022/08/03 07:46:29;;;;;;;4.93;0.60;;;;;;;22.95;100.00;98451.19;15281801;19;20032;-64
2022/08/03 07:51:34;;;;;;;0.93;0.60;;;;;;;23.22;99.63;98447.94;15283843;19;20103;-64
2022/08/03 07:56:42;;;;;;;4.45;0.70;;;;;;;23.47;99.82;98446.75;15285980;19;20039;-64
2022/08/03 08:01:47;;;;;;;2.65;0.80;;;;;;;23.75;96.03;98436.84;15283103;19;20014;-65
2022/08/03 08:06:52;;;;;;;3.03;0.52;;;;;;;23.96;93.94;98447.16;15273454;19;20366;-65
2022/08/03 08:11:59;;;;;;;1.20;0.60;;;;;;;24.25;89.81;98435.22;15281951;19;20019;-65
2022/08/03 08:17:04;;;;;;;1.95;0.60;;;;;;;24.59;79.19;98432.44;15286678;19;20038;-64
2022/08/03 08:22:11;;;;;;;2.60;0.60;;;;;;;24.82;76.05;98420.41;15285752;19;20031;-65
2022/08/03 08:27:21;;;;;;;2.83;0.57;;;;;;;25.18;72.15;98429.16;15283177;19;20022;-65
2022/08/03 08:32:26;;;;;;;3.40;0.70;;;;;;;25.35;71.38;98423.56;15284767;19;20014;-65
2022/08/03 08:37:31;;;;;;;3.40;0.40;;;;;;;25.63;67.12;98424.44;15274336;19;20010;-65
2022/08/03 08:42:42;;;;;;;1.65;0.50;;;;;;;25.95;65.11;98422.78;15285046;19;20014;-64
2022/08/03 08:48:05;;;;;;;2.75;0.50;;;;;;;26.10;64.06;98434.00;15287390;19;20082;-64
2022/08/03 08:53:15;;;;;;;0.80;0.43;;;;;;;26.37;60.62;98424.84;15296856;19;20023;-66
2022/08/03 08:58:30;;;;;;;2.55;0.57;;;;;;;26.61;60.17;98427.22;15301361;19;20031;-66
2022/08/03 09:03:35;;;;;;;2.53;0.50;;;;;;;26.82;58.27;98428.19;15293295;19;20010;-64
2022/08/03 09:08:40;;;;;;;1.55;0.50;;;;;;;26.95;57.40;98426.88;15291450;19;20023;-64
2022/08/03 09:13:48;;;;;;;3.13;0.38;;;;;;;27.22;53.07;98420.38;15294375;19;20019;-65
2022/08/03 09:18:55;;;;;;;0.70;0.32;;;;;;;27.34;53.69;98420.94;15296766;19;20014;-64
2022/08/03 09:24:23;;;;;;;1.25;0.30;;;;;;;27.50;51.22;98409.94;15296844;19;20031;-64
2022/08/03 09:29:49;;;;;;;1.45;0.50;;;;;;;27.66;49.56;98408.88;15297055;19;20021;-64
2022/08/03 09:34:54;;;;;;;2.90;0.40;;;;;;;27.74;49.36;98410.28;15296737;19;20018;-66
2022/08/03 09:40:01;;;;;;;1.27;0.50;;;;;;;27.93;48.55;98402.25;15285993;19;20027;-66
2022/08/03 09:45:28;;;;;;;1.33;0.35;;;;;;;28.09;44.86;98405.06;15295416;19;20027;-66
2022/08/03 09:50:50;;;;;;;1.05;0.38;;;;;;;28.32;45.85;98391.75;15293354;19;20010;-66
2022/08/03 09:56:15;;;;;;;2.03;0.40;;;;;;;28.42;47.57;98392.59;15294245;19;20029;-64
2022/08/03 10:01:45;;;;;;;2.30;0.50;;;;;;;28.50;46.07;98393.09;15292500;19;20558;-66
2022/08/03 10:07:05;;;;;;;3.75;0.60;;;;;;;28.72;43.39;98390.06;15290811;19;20010;-65
2022/08/03 10:12:12;;;;;;;1.03;0.43;;;;;;;28.86;44.26;98373.63;15282042;19;20527;-65
2022/08/03 10:17:20;;;;;;;2.95;0.60;;;;;;;29.07;44.19;98379.94;15291623;19;20262;-64
2022/08/03 10:22:29;;;;;;;1.27;0.30;;;;;;;29.13;43.06;98375.19;15290228;19;20031;-65
2022/08/03 10:27:36;;;;;;;1.95;0.50;;;;;;;29.17;44.46;98365.16;15287951;19;20014;-64
2022/08/03 10:32:48;;;;;;;2.03;0.40;;;;;;;29.19;41.44;98372.13;15288445;19;20027;-65
2022/08/03 10:37:59;;;;;;;1.05;0.40;;;;;;;29.27;43.46;98358.75;15291295;19;20029;-64
2022/08/03 10:43:09;;;;;;;0.50;0.30;;;;;;;29.40;43.83;98355.38;15288561;19;20471;-65
2022/08/03 10:48:18;;;;;;;0.57;0.30;;;;;;;29.49;43.73;98348.09;15272904;19;20022;-65
2022/08/03 10:53:36;;;;;;;0.50;0.30;;;;;;;29.50;40.23;98343.38;15286583;19;20043;-65
2022/08/03 10:58:49;;;;;;;1.48;0.30;;;;;;;29.81;40.51;98337.59;15289774;19;20283;-64
2022/08/03 11:04:19;;;;;;;0.65;0.25;;;;;;;29.95;38.85;98346.09;15290026;19;20015;-65
2022/08/03 11:09:24;;;;;;;2.28;0.35;;;;;;;30.13;39.14;98350.94;15287300;19;20053;-64
2022/08/03 11:14:29;;;;;;;2.58;0.35;;;;;;;30.13;39.94;98339.84;15287307;19;20035;-65
2022/08/03 11:19:48;;;;;;;1.65;0.50;;;;;;;30.22;38.53;98340.03;15275366;19;20059;-65
2022/08/03 11:25:03;;;;;;;0.85;0.30;;;;;;;30.38;39.62;98340.69;15287682;19;20022;-65
2022/08/03 11:30:13;;;;;;;1.70;0.32;;;;;;;30.56;38.38;98338.31;15286189;19;20071;-66
2022/08/03 11:35:23;;;;;;;2.15;0.40;;;;;;;30.71;38.33;98329.78;15288211;19;20381;-65
2022/08/03 11:40:36;;;;;;;1.13;0.30;;;;;;;30.92;38.60;98331.50;15288094;19;20010;-65
2022/08/03 11:45:57;;;;;;;0.88;0.40;;;;;;;31.02;38.49;98329.38;15287037;19;20010;-65
2022/08/03 11:51:06;;;;;;;0.82;0.40;;;;;;;31.25;39.01;98324.09;15275637;19;20018;-66
2022/08/03 11:56:12;;;;;;;0.70;0.35;;;;;;;31.60;37.21;98307.97;15284462;19;20031;-65
2022/08/03 12:01:18;;;;;;;2.15;0.40;;;;;;;31.61;36.54;98315.19;15283154;19;20023;-65
2022/08/03 12:06:29;;;;;;;0.88;0.38;;;;;;;31.70;37.54;98306.16;15282514;19;20018;-65
2022/08/03 12:11:34;;;;;;;0.93;0.30;;;;;;;31.78;37.57;98302.72;15283633;19;20018;-65
2022/08/03 12:16:39;;;;;;;3.35;0.32;;;;;;;32.06;36.96;98294.41;15284222;19;20078;-65
2022/08/03 12:21:50;;;;;;;0.45;0.30;;;;;;;32.41;36.63;98297.69;15270758;19;20034;-65
2022/08/03 12:27:01;;;;;;;3.80;0.40;;;;;;;32.60;36.50;98288.41;15297348;19;20010;-64
2022/08/03 12:32:06;;;;;;;1.13;0.40;;;;;;;32.92;35.43;98278.25;15296383;19;21687;-65
2022/08/03 12:37:14;;;;;;;0.73;0.30;;;;;;;33.10;35.17;98263.34;15300686;19;20023;-64
2022/08/03 12:42:32;;;;;;;0.55;0.30;;;;;;;33.41;33.50;98273.81;15293556;19;20078;-63
2022/08/03 12:47:51;;;;;;;4.32;0.40;;;;;;;33.67;32.70;98259.22;15295602;19;20109;-64
2022/08/03 12:53:00;;;;;;;2.17;0.30;;;;;;;33.90;32.34;98262.00;15288877;19;20625;-65
2022/08/03 12:58:06;;;;;;;0.77;0.30;;;;;;;34.12;33.07;98252.72;15292614;19;20018;-64
2022/08/03 13:03:11;;;;;;;2.25;0.40;;;;;;;34.25;32.33;98251.00;15291795;19;20491;-64
2022/08/03 13:08:38;;;;;;;3.55;0.43;;;;;;;34.56;32.14;98250.13;15294103;19;20109;-63
2022/08/03 13:13:44;;;;;;;1.85;0.30;;;;;;;34.84;31.76;98244.25;15290943;19;20021;-63
2022/08/03 13:18:50;;;;;;;1.15;0.35;;;;;;;35.02;30.26;98253.53;15296556;19;20740;-63
2022/08/03 13:23:58;;;;;;;0.80;0.30;;;;;;;35.06;29.86;98246.09;15296079;19;20026;-63
2022/08/03 13:29:03;;;;;;;0.50;0.30;;;;;;;35.24;29.90;98255.34;15279177;19;20014;-65
2022/08/03 13:34:08;;;;;;;1.58;0.17;;;;;;;35.07;29.30;98244.97;15294055;19;20014;-64
2022/08/03 13:39:15;;;;;;;0.73;0.30;;;;;;;35.30;30.01;98233.59;15291519;19;20014;-64
2022/08/03 13:44:23;;;;;;;0.98;0.32;;;;;;;35.65;30.34;98227.97;15295265;19;20363;-65
2022/08/03 13:49:33;;;;;;;;;;;;;;;36.03;27.97;98226.41;15290986;19;20010;-64
2022/08/03 13:54:40;;;;;;;1.15;0.38;;;;;;;36.30;28.60;98218.69;15294276;19;20279;-65
2022/08/03 13:59:49;;;;;;;1.92;0.40;;;;;;;36.57;29.02;98219.41;15280452;19;20062;-64
2022/08/03 14:04:56;;;;;;;1.05;0.30;;;;;;;36.68;29.11;98203.81;15294377;19;20030;-64
2022/08/03 14:10:04;;;;;;;3.58;0.47;;;;;;;36.79;28.47;98199.44;15292810;19;20014;-65
2022/08/03 14:15:11;;;;;;;0.95;0.40;;;;;;;37.07;28.59;98200.91;15293466;19;20019;-65
2022/08/03 14:20:16;;;;;;;1.02;0.30;;;;;;;37.51;28.05;98201.38;15292811;19;20018;-65
2022/08/03 14:25:44;;;;;;;0.88;0.28;;;;;;;37.52;27.41;98197.38;15291298;19;20014;-65
2022/08/03 14:30:57;;;;;;;0.88;0.30;;;;;;;37.71;27.37;98196.03;15278106;19;20016;-66
2022/08/03 14:36:02;;;;;;;3.92;0.30;;;;;;;37.68;26.87;98194.72;15291995;19;20455;-65
2022/08/03 14:41:10;;;;;;;0.70;0.20;;;;;;;37.80;26.71;98187.50;15290896;19;20018;-65
2022/08/03 14:46:23;;;;;;;1.92;0.30;;;;;;;37.85;27.04;98187.25;15287665;19;20031;-65
2022/08/03 14:51:28;;;;;;;0.50;0.22;;;;;;;37.55;25.96;98181.81;15287018;19;20014;-64
2022/08/03 14:56:38;;;;;;;3.25;0.30;;;;;;;37.61;26.35;98186.88;15287513;19;20510;-68
2022/08/03 15:01:42;;;;;;;0.13;0.10;;;;;;;37.84;26.74;98178.00;15287005;19;20019;-67
2022/08/03 15:07:08;;;;;;;0.75;0.30;;;;;;;37.74;26.77;98172.84;15284361;19;20364;-65
2022/08/03 15:12:15;;;;;;;4.28;0.22;;;;;;;38.03;26.13;98163.41;15286373;19;20022;-64
2022/08/03 15:17:31;;;;;;;0.20;0.20;;;;;;;38.02;25.99;98150.53;15283388;19;20770;-64
2022/08/03 15:22:36;;;;;;;1.58;0.28;;;;;;;38.52;25.83;98144.84;15284286;19;20010;-59
2022/08/03 15:27:44;;;;;;;0.95;0.25;;;;;;;38.96;25.48;98152.63;15282618;19;20027;-60
2022/08/03 15:33:08;;;;;;;0.98;0.30;;;;;;;39.35;24.76;98138.88;15284295;19;20021;-63
2022/08/03 15:38:13;;;;;;;0.65;0.20;;;;;;;39.58;24.84;98139.06;15273594;19;20452;-62
2022/08/03 15:43:20;;;;;;;0.20;0.20;;;;;;;39.44;24.25;98133.88;15282223;19;20022;-64
2022/08/03 15:48:25;;;;;;;0.55;0.20;;;;;;;39.25;24.31;98128.91;15281243;19;20042;-65
2022/08/03 15:53:30;;;;;;;0.75;0.20;;;;;;;39.24;24.76;98124.44;15283405;19;20375;-63
2022/08/03 15:58:38;;;;;;;0.28;0.20;;;;;;;39.41;24.11;98136.59;15293001;19;20508;-64
2022/08/03 16:04:03;;;;;;;1.85;0.30;;;;;;;38.22;25.08;98145.13;15299037;19;20524;-65
2022/08/03 16:09:09;;;;;;;3.08;0.30;;;;;;;37.12;26.49;98150.97;15284473;19;20022;-65
2022/08/03 16:14:37;;;;;;;3.53;0.45;;;;;;;36.60;26.67;98142.97;15300926;19;20032;-65
2022/08/03 16:19:56;;;;;;;3.03;0.30;;;;;;;36.09;27.99;98135.34;15296906;19;20011;-65
2022/08/03 16:25:02;;;;;;;5.35;0.40;;;;;;;36.15;27.93;98127.56;15297597;19;20022;-64
2022/08/03 16:30:20;;;;;;;2.78;0.50;;;;;;;36.38;27.89;98131.69;15292723;19;20010;-64
2022/08/03 16:35:25;;;;;;;1.73;0.30;;;;;;;36.40;27.69;98134.16;15300511;19;20014;-64
2022/08/03 16:40:30;;;;;;;1.33;0.32;;;;;;;36.65;27.30;98134.34;15284884;19;20055;-65
2022/08/03 16:45:37;;;;;;;2.17;0.30;;;;;;;36.51;27.77;98141.06;15299757;19;20007;-65
2022/08/03 16:50:43;;;;;;;5.05;0.50;;;;;;;36.65;27.39;98137.13;15294439;19;20022;-65
2022/08/03 16:55:48;;;;;;;4.03;0.30;;;;;;;36.89;27.38;98138.44;15297182;19;20018;-65
2022/08/03 17:01:00;;;;;;;2.88;0.40;;;;;;;36.93;27.53;98143.03;15295240;19;20015;-65
2022/08/03 17:06:28;;;;;;;3.25;0.45;;;;;;;36.89;27.17;98135.63;15296248;19;20011;-65
2022/08/03 17:11:40;;;;;;;1.20;0.20;;;;;;;37.05;27.56;98138.69;15286821;19;20050;-65
2022/08/03 17:16:56;;;;;;;3.95;0.30;;;;;;;37.08;27.46;98141.59;15297146;19;20467;-65
2022/08/03 17:22:04;;;;;;;2.92;0.47;;;;;;;37.05;27.67;98144.28;15293021;19;20015;-65
2022/08/03 17:27:20;;;;;;;1.48;0.35;;;;;;;36.96;27.36;98147.97;15282970;19;20037;-64
2022/08/03 17:32:49;;;;;;;2.10;0.30;;;;;;;36.90;27.86;98146.53;15295595;19;20006;-62
2022/08/03 17:38:01;;;;;;;1.67;0.30;;;;;;;36.90;28.48;98149.34;15293190;19;20015;-62
2022/08/03 17:43:11;;;;;;;2.65;0.30;;;;;;;36.70;28.31;98153.78;15291794;19;20026;-62
2022/08/03 17:48:39;;;;;;;4.25;0.30;;;;;;;36.38;28.69;98148.53;15287349;19;20017;-63
2022/08/03 17:53:50;;;;;;;2.97;0.30;;;;;;;36.17;29.07;98153.28;15297132;19;20003;-60
2022/08/03 17:59:05;;;;;;;2.20;0.38;;;;;;;35.89;29.78;98148.94;15291222;19;20097;-64
2022/08/03 18:04:21;;;;;;;1.50;0.40;;;;;;;35.64;29.96;98154.31;15297449;19;20167;-64
2022/08/03 18:09:49;;;;;;;2.70;0.40;;;;;;;35.26;30.43;98157.81;15290869;19;20121;-62
2022/08/03 18:15:15;;;;;;;2.55;0.40;;;;;;;34.92;30.55;98167.09;15289618;19;20018;-59
2022/08/03 18:20:28;;;;;;;3.17;0.32;;;;;;;34.50;31.11;98176.72;15286474;19;20014;-61
2022/08/03 18:25:43;;;;;;;4.00;0.38;;;;;;;34.17;31.26;98176.28;15294051;19;20057;-62
2022/08/03 18:31:03;;;;;;;3.58;0.40;;;;;;;33.52;31.71;98173.81;15289272;19;20006;-64
2022/08/03 18:36:13;;;;;;;2.72;0.38;;;;;;;32.94;32.65;98173.56;15292542;19;20074;-63
2022/08/03 18:41:21;;;;;;;3.92;0.40;;;;;;;32.44;33.05;98168.81;15291474;19;20018;-61
2022/08/03 18:46:49;;;;;;;2.25;0.38;;;;;;;31.98;33.95;98173.38;15291190;19;20002;-59
2022/08/03 18:52:03;;;;;;;2.08;0.45;;;;;;;31.56;34.37;98178.88;15280339;19;20018;-60
2022/08/03 18:57:23;;;;;;;2.13;0.40;;;;;;;31.17;34.65;98177.28;15289066;19;20025;-63
2022/08/03 19:02:43;;;;;;;4.80;0.50;;;;;;;30.77;35.13;98169.25;15288981;19;20020;-62
2022/08/03 19:08:06;;;;;;;2.80;0.60;;;;;;;30.36;36.52;98187.31;15289132;19;20098;-64
2022/08/03 19:13:24;;;;;;;1.60;0.45;;;;;;;29.98;36.88;98179.72;15291148;19;20040;-64
2022/08/03 19:18:42;;;;;;;2.35;0.63;;;;;;;29.67;37.58;98188.31;15285616;19;20538;-64
2022/08/03 19:23:50;;;;;;;0.90;0.40;;;;;;;29.43;39.51;98185.53;15281384;19;20007;-61
2022/08/03 19:29:00;;;;;;;6.22;0.65;;;;;;;29.25;39.01;98194.50;15284257;19;20373;-63
2022/08/03 19:34:06;;;;;;;7.75;0.70;;;;;;;29.05;39.58;98199.09;15289459;19;20007;-64
2022/08/03 19:39:14;;;;;;;3.58;0.70;;;;;;;28.87;40.38;98197.84;15292768;19;20002;-63
2022/08/03 19:44:26;;;;;;;3.28;0.60;;;;;;;28.72;39.54;98199.59;15291363;19;20088;-63
2022/08/03 19:49:38;;;;;;;1.05;0.50;;;;;;;28.63;39.76;98206.00;15285647;19;20013;-63
2022/08/03 19:55:08;;;;;;;2.47;0.57;;;;;;;28.44;40.72;98207.50;15282389;19;20039;-63
2022/08/03 20:00:18;;;;;;;0.57;0.57;;;;;;;28.23;40.72;98201.19;15292352;19;20101;-65
2022/08/03 20:05:30;;;;;;;1.05;0.40;;;;;;;28.06;41.13;98206.19;15292149;19;20064;-64
2022/08/03 20:10:59;;;;;;;4.43;0.65;;;;;;;27.87;41.50;98208.78;15281872;19;20010;-63
2022/08/03 20:16:07;;;;;;;2.67;0.55;;;;;;;27.73;41.31;98202.97;15287691;19;20009;-64
2022/08/03 20:21:17;;;;;;;2.47;0.50;;;;;;;27.64;41.15;98203.53;15296153;19;20026;-63
2022/08/03 20:26:30;;;;;;;3.05;0.60;;;;;;;27.52;41.49;98200.22;15279943;19;20035;-61
2022/08/03 20:31:37;;;;;;;2.08;0.50;;;;;;;27.45;41.77;98202.47;15285506;19;20472;-62
2022/08/03 20:36:43;;;;;;;1.48;0.60;;;;;;;27.31;42.59;98202.97;15286926;19;20096;-62
2022/08/03 20:41:52;;;;;;;4.25;0.70;;;;;;;27.20;42.91;98209.63;15292529;19;20027;-63
2022/08/03 20:47:01;;;;;;;1.48;0.50;;;;;;;27.07;43.01;98213.75;15302804;19;20027;-62
2022/08/03 20:52:06;;;;;;;5.88;0.80;;;;;;;26.96;43.39;98204.63;15307641;19;20021;-62
2022/08/03 20:57:26;;;;;;;1.30;0.55;;;;;;;26.80;44.23;98203.78;15295413;19;20010;-64
2022/08/03 21:02:37;;;;;;;3.10;0.80;;;;;;;26.66;44.18;98203.41;15304575;19;20006;-64
2022/08/03 21:07:48;;;;;;;5.20;0.70;;;;;;;26.54;44.56;98200.06;15302103;19;20055;-63
2022/08/03 21:13:18;;;;;;;1.00;0.60;;;;;;;26.41;44.58;98196.69;15300363;19;20655;-63
2022/08/03 21:18:47;;;;;;;1.38;0.60;;;;;;;26.27;44.48;98201.09;15300806;19;20074;-63
2022/08/03 21:23:57;;;;;;;1.85;0.52;;;;;;;26.14;44.81;98203.25;15309350;19;20043;-63
2022/08/03 21:29:06;;;;;;;0.60;0.50;;;;;;;26.01;45.62;98206.44;15298427;19;20061;-63
2022/08/03 21:34:16;;;;;;;3.17;0.65;;;;;;;25.87;46.62;98208.88;15299313;19;20695;-63
2022/08/03 21:39:22;;;;;;;3.20;0.60;;;;;;;25.66;47.15;98202.38;15299411;19;20502;-63
2022/08/03 21:44:29;;;;;;;3.05;0.80;;;;;;;25.54;47.90;98195.13;15275152;19;20018;-64
2022/08/03 21:49:37;;;;;;;3.50;0.80;;;;;;;25.45;47.84;98196.72;15295731;19;20015;-64
2022/08/03 21:55:07;;;;;;;1.90;0.60;;;;;;;25.34;48.49;98200.47;15293481;19;20021;-63
2022/08/03 22:00:25;;;;;;;5.07;0.70;;;;;;;25.21;48.69;98191.56;15296306;19;20511;-64
2022/08/03 22:05:31;;;;;;;1.77;0.80;;;;;;;25.10;49.08;98192.56;15281766;19;20022;-63
2022/08/03 22:10:48;;;;;;;2.78;0.70;;;;;;;25.00;49.51;98190.53;15291709;19;20027;-63
2022/08/03 22:15:56;;;;;;;2.25;0.60;;;;;;;24.94;49.54;98191.56;15291414;19;20022;-64
2022/08/03 22:21:02;;;;;;;2.25;0.50;;;;;;;24.83;50.35;98187.03;15296473;19;20023;-64
2022/08/03 22:26:10;;;;;;;0.80;0.50;;;;;;;24.72;51.05;98186.13;15290886;19;20022;-65
2022/08/03 22:31:17;;;;;;;0.88;0.60;;;;;;;24.64;50.99;98192.06;15288160;19;20028;-64
2022/08/03 22:36:43;;;;;;;3.38;0.70;;;;;;;24.52;51.75;98195.78;15278469;19;20014;-64
2022/08/03 22:41:49;;;;;;;2.28;0.80;;;;;;;24.39;53.44;98190.69;15291357;19;20794;-64
2022/08/03 22:46:57;;;;;;;3.03;0.60;;;;;;;24.25;53.59;98199.34;15288194;19;20022;-65
2022/08/03 22:52:04;;;;;;;2.33;0.70;;;;;;;24.16;55.05;98198.13;15290462;19;20018;-65
2022/08/03 22:57:09;;;;;;;4.88;0.80;;;;;;;24.04;55.42;98201.00;15290139;19;20017;-65
2022/08/03 23:02:21;;;;;;;2.78;0.60;;;;;;;23.93;55.03;98199.16;15292303;19;20011;-64
2022/08/03 23:07:32;;;;;;;2.47;0.70;;;;;;;23.85;56.23;98200.44;15275579;19;20024;-64
2022/08/03 23:12:39;;;;;;;1.13;0.60;;;;;;;23.77;56.91;98200.88;15291905;19;20011;-65
2022/08/03 23:17:52;;;;;;;1.83;0.70;;;;;;;23.69;57.13;98200.22;15287736;19;20042;-65
2022/08/03 23:23:03;;;;;;;2.75;0.75;;;;;;;23.61;58.18;98200.63;15288937;19;20026;-65
2022/08/03 23:28:10;;;;;;;2.88;0.70;;;;;;;23.50;58.31;98202.41;15274391;19;20458;-64
2022/08/03 23:33:19;;;;;;;4.65;0.70;;;;;;;23.36;59.55;98193.66;15280111;19;20153;-65
2022/08/03 23:38:26;;;;;;;0.70;0.70;;;;;;;23.26;60.19;98196.25;15274581;19;20035;-65
2022/08/03 23:43:34;;;;;;;0.77;0.60;;;;;;;23.16;60.76;98199.63;15279593;19;20460;-66
2022/08/03 23:49:01;;;;;;;2.55;0.63;;;;;;;23.06;61.80;98200.28;15282777;19;20003;-65
2022/08/03 23:54:15;;;;;;;1.83;0.60;;;;;;;22.96;62.49;98196.53;15285987;19;20027;-66
2022/08/03 23:59:29;;;;;;;4.13;0.70;;;;;;;22.87;62.72;98204.34;15282918;19;20082;-65
